createdAt,value
2022-07-30T00:01:22.489Z,5.15
2022-07-30T00:04:25.519Z,5.20
2022-07-30T00:07:28.407Z,5.22
2022-07-30T00:10:31.275Z,5.22
2022-07-30T00:13:33.738Z,5.22
2022-07-30T00:16:37.054Z,5.25
2022-07-30T00:19:39.629Z,5.12
2022-07-30T00:22:46.939Z,6.12
2022-07-30T00:25:49.455Z,4.80
2022-07-30T00:28:52.601Z,5.25
2022-07-30T00:31:55.052Z,5.18
2022-07-30T00:34:58.605Z,5.65
2022-07-30T00:38:01.262Z,5.50
2022-07-30T00:41:04.078Z,4.55
2022-07-30T00:44:06.549Z,5.93
2022-07-30T00:47:09.378Z,5.78
2022-07-30T00:50:13.748Z,5.57
2022-07-30T00:53:16.587Z,5.15
2022-07-30T00:56:19.115Z,8.15
2022-07-30T00:59:22.222Z,5.50
2022-07-30T01:02:25.210Z,6.30
2022-07-30T01:05:28.075Z,5.28
2022-07-30T01:08:30.751Z,5.20
2022-07-30T01:11:38.442Z,6.22
2022-07-30T01:14:41.005Z,5.45
2022-07-30T01:17:44.859Z,5.05
2022-07-30T01:21:05.292Z,5.10
2022-07-30T01:24:47.082Z,5.25
2022-07-30T01:27:58.310Z,5.57
2022-07-30T01:31:03.412Z,5.93
2022-07-30T01:34:06.867Z,5.00
2022-07-30T01:37:11.733Z,5.22
2022-07-30T01:40:15.302Z,5.07
2022-07-30T01:43:20.149Z,5.55
2022-07-30T01:46:23.958Z,5.60
2022-07-30T01:49:29.904Z,5.37
2022-07-30T01:52:36.388Z,5.47
2022-07-30T01:55:41.989Z,5.37
2022-07-30T01:58:48.969Z,5.72
2022-07-30T02:01:52.812Z,5.90
2022-07-30T02:04:55.821Z,6.32
2022-07-30T02:08:07.470Z,5.82
2022-07-30T02:11:15.725Z,6.12
2022-07-30T02:14:23.906Z,5.80
2022-07-30T02:17:39.676Z,5.20
2022-07-30T02:20:51.246Z,6.53
2022-07-30T02:27:08.621Z,5.70
2022-07-30T02:30:12.245Z,5.72
2022-07-30T02:33:17.527Z,5.65
2022-07-30T02:36:20.792Z,5.35
2022-07-30T02:39:24.578Z,5.60
2022-07-30T02:42:29.744Z,6.03
2022-07-30T02:45:33.783Z,6.18
2022-07-30T02:48:40.066Z,7.20
2022-07-30T02:51:43.285Z,5.60
2022-07-30T02:54:47.947Z,5.68
2022-07-30T02:57:53.374Z,5.53
2022-07-30T03:00:57.547Z,6.03
2022-07-30T03:04:01.671Z,6.50
2022-07-30T03:07:08.425Z,5.75
2022-07-30T03:10:13.125Z,6.25
2022-07-30T03:13:18.075Z,5.72
2022-07-30T03:16:23.421Z,6.47
2022-07-30T03:19:31.087Z,5.72
2022-07-30T03:22:41.455Z,5.70
2022-07-30T03:25:47.938Z,5.90
2022-07-30T03:28:51.632Z,6.15
2022-07-30T03:31:54.913Z,5.22
2022-07-30T03:35:05.926Z,5.18
2022-07-30T03:38:14.450Z,4.95
2022-07-30T03:41:18.043Z,5.50
2022-07-30T03:44:22.176Z,5.20
2022-07-30T03:47:26.374Z,5.90
2022-07-30T03:50:29.428Z,4.87
2022-07-30T03:53:33.131Z,5.25
2022-07-30T03:56:40.502Z,6.47
2022-07-30T03:59:43.696Z,5.37
2022-07-30T04:02:47.335Z,6.40
2022-07-30T04:08:56.826Z,5.10
2022-07-30T04:11:59.696Z,5.60
2022-07-30T04:15:02.575Z,8.02
2022-07-30T04:18:27.878Z,5.85
2022-07-30T04:21:33.643Z,6.75
2022-07-30T04:24:39.212Z,5.93
2022-07-30T04:27:58.453Z,5.93
2022-07-30T04:31:05.766Z,6.55
2022-07-30T04:34:08.566Z,6.00
2022-07-30T04:37:11.826Z,6.43
2022-07-30T04:40:14.487Z,5.95
2022-07-30T04:43:17.482Z,4.80
2022-07-30T04:46:20.681Z,5.25
2022-07-30T04:49:28.821Z,5.10
2022-07-30T04:52:32.272Z,5.28
2022-07-30T04:55:36.207Z,5.40
2022-07-30T04:58:41.420Z,5.10
2022-07-30T05:01:49.845Z,5.87
2022-07-30T05:04:54.503Z,5.45
2022-07-30T05:07:57.884Z,5.10
2022-07-30T05:11:00.781Z,6.07
2022-07-30T05:14:03.685Z,5.47
2022-07-30T05:17:06.261Z,5.22
2022-07-30T05:20:10.116Z,5.12
2022-07-30T05:23:15.221Z,4.82
2022-07-30T05:26:22.151Z,6.20
2022-07-30T05:29:31.435Z,5.05
2022-07-30T05:32:34.863Z,5.03
2022-07-30T05:35:38.693Z,5.28
2022-07-30T05:38:41.772Z,5.50
2022-07-30T05:41:45.568Z,6.70
2022-07-30T05:44:48.473Z,5.15
2022-07-30T05:47:51.082Z,4.93
2022-07-30T05:50:54.433Z,4.85
2022-07-30T05:53:57.158Z,5.40
2022-07-30T05:57:00.906Z,5.93
2022-07-30T06:00:06.223Z,4.93
2022-07-30T06:03:18.983Z,5.55
2022-07-30T06:06:23.733Z,5.05
2022-07-30T06:09:36.556Z,7.72
2022-07-30T06:12:41.835Z,8.13
2022-07-30T06:15:44.801Z,7.07
2022-07-30T06:18:47.701Z,7.32
2022-07-30T06:22:05.300Z,5.07
2022-07-30T06:25:11.539Z,5.20
2022-07-30T06:28:36.958Z,5.05
2022-07-30T06:31:41.843Z,4.78
2022-07-30T06:34:45.420Z,7.10
2022-07-30T06:37:58.555Z,4.60
2022-07-30T06:41:11.181Z,6.28
2022-07-30T06:44:14.918Z,4.45
2022-07-30T06:47:26.256Z,4.53
2022-07-30T06:50:29.136Z,4.45
2022-07-30T06:53:31.745Z,4.18
2022-07-30T06:56:37.313Z,5.62
2022-07-30T06:59:56.581Z,3.95
2022-07-30T07:03:00.721Z,4.55
2022-07-30T07:06:05.320Z,4.00
2022-07-30T07:09:08.352Z,4.75
2022-07-30T07:12:11.095Z,4.50
2022-07-30T07:15:15.340Z,4.03
2022-07-30T07:18:19.408Z,4.28
2022-07-30T07:21:23.555Z,4.70
2022-07-30T07:24:26.705Z,5.12
2022-07-30T07:27:29.898Z,4.62
2022-07-30T07:30:33.558Z,4.70
2022-07-30T07:33:40.505Z,4.35
2022-07-30T07:36:43.387Z,4.12
2022-07-30T07:39:46.415Z,5.37
2022-07-30T07:42:49.283Z,4.40
2022-07-30T07:45:53.454Z,4.40
2022-07-30T07:48:56.867Z,6.78
2022-07-30T07:52:00.846Z,4.03
2022-07-30T07:55:03.591Z,3.83
2022-07-30T07:58:13.555Z,4.10
2022-07-30T08:01:21.997Z,3.83
2022-07-30T08:04:27.509Z,3.70
2022-07-30T08:07:32.652Z,4.28
2022-07-30T08:10:37.143Z,4.40
2022-07-30T08:13:48.154Z,4.32
2022-07-30T08:17:02.218Z,4.22
2022-07-30T08:20:09.104Z,5.82
2022-07-30T08:23:12.827Z,4.40
2022-07-30T08:26:15.559Z,4.60
2022-07-30T08:29:18.491Z,4.62
2022-07-30T08:32:21.401Z,7.55
2022-07-30T08:35:24.342Z,5.78
2022-07-30T08:38:27.253Z,5.00
2022-07-30T08:41:31.297Z,7.00
2022-07-30T08:44:35.690Z,5.95
2022-07-30T08:47:41.424Z,5.65
2022-07-30T08:50:50.273Z,5.47
2022-07-30T08:53:57.781Z,5.15
2022-07-30T08:57:00.576Z,5.30
2022-07-30T09:00:07.114Z,5.55
2022-07-30T09:03:11.866Z,5.57
2022-07-30T09:06:15.719Z,6.87
2022-07-30T09:09:18.313Z,5.32
2022-07-30T09:12:44.107Z,5.45
2022-07-30T09:15:46.662Z,5.22
2022-07-30T09:18:50.912Z,4.90
2022-07-30T09:21:58.462Z,6.85
2022-07-30T09:25:01.744Z,5.55
2022-07-30T09:28:16.394Z,5.07
2022-07-30T09:34:40.238Z,5.35
2022-07-30T09:38:03.205Z,7.43
2022-07-30T09:41:37.762Z,5.32
2022-07-30T09:44:41.975Z,5.20
2022-07-30T09:47:48.353Z,5.10
2022-07-30T09:50:54.457Z,5.28
2022-07-30T09:54:00.094Z,7.60
2022-07-30T10:00:35.841Z,9.68
2022-07-30T10:03:43.059Z,9.57
2022-07-30T10:07:00.729Z,11.80
2022-07-30T10:10:07.986Z,14.50
2022-07-30T10:13:20.727Z,17.83
2022-07-30T10:16:29.444Z,20.10
2022-07-30T10:22:51.581Z,15.75
2022-07-30T10:26:03.646Z,17.48
2022-07-30T10:29:09.236Z,20.02
2022-07-30T10:32:15.742Z,16.10
2022-07-30T10:35:34.403Z,18.58
2022-07-30T10:38:43.369Z,17.25
2022-07-30T10:41:56.770Z,19.10
2022-07-30T10:45:17.143Z,16.87
2022-07-30T10:48:22.042Z,19.15
2022-07-30T10:51:48.048Z,17.83
2022-07-30T10:54:53.866Z,18.15
2022-07-30T10:58:07.745Z,17.42
2022-07-30T11:01:18.435Z,17.45
2022-07-30T11:04:29.508Z,16.05
2022-07-30T11:07:32.747Z,15.30
2022-07-30T11:10:43.996Z,15.88
2022-07-30T11:13:56.035Z,15.43
2022-07-30T11:16:59.876Z,12.52
2022-07-30T11:20:03.353Z,12.32
2022-07-30T11:23:10.282Z,12.23
2022-07-30T11:26:38.857Z,12.93
2022-07-30T11:29:50.630Z,13.95
2022-07-30T11:33:18.631Z,11.70
2022-07-30T11:36:21.474Z,11.07
2022-07-30T11:39:55.369Z,11.27
2022-07-30T11:43:34.914Z,12.48
2022-07-30T11:46:48.171Z,11.12
2022-07-30T11:49:51.266Z,9.45
2022-07-30T11:52:58.972Z,9.55
2022-07-30T11:56:03.569Z,8.38
2022-07-30T11:59:08.354Z,9.90
2022-07-30T12:02:11.001Z,8.27
2022-07-30T12:05:14.337Z,7.18
2022-07-30T12:08:33.451Z,6.90
2022-07-30T12:11:39.246Z,7.07
2022-07-30T12:14:44.479Z,6.37
2022-07-30T12:17:47.395Z,6.18
2022-07-30T12:20:59.440Z,6.40
2022-07-30T12:24:07.363Z,6.85
2022-07-30T12:27:12.813Z,6.75
2022-07-30T12:30:17.326Z,6.72
2022-07-30T12:33:20.789Z,5.82
2022-07-30T12:36:30.752Z,5.75
2022-07-30T12:39:33.728Z,5.25
2022-07-30T12:42:38.794Z,4.18
2022-07-30T12:45:51.865Z,4.30
2022-07-30T12:49:22.259Z,4.37
2022-07-30T12:52:34.792Z,3.10
2022-07-30T12:55:37.771Z,2.83
2022-07-30T12:58:41.211Z,3.10
2022-07-30T13:01:47.097Z,2.83
2022-07-30T13:04:59.157Z,2.33
2022-07-30T13:08:14.532Z,2.40
2022-07-30T13:11:18.908Z,2.00
2022-07-30T13:14:23.578Z,1.73
2022-07-30T13:17:27.330Z,1.42
2022-07-30T13:20:30.374Z,1.30
2022-07-30T13:23:36.892Z,1.35
2022-07-30T13:26:39.689Z,1.75
2022-07-30T13:29:42.585Z,1.92
2022-07-30T13:32:45.557Z,1.60
2022-07-30T13:35:48.470Z,2.75
2022-07-30T13:38:52.295Z,1.90
2022-07-30T13:41:55.374Z,1.67
2022-07-30T13:44:58.173Z,2.55
2022-07-30T13:48:00.679Z,1.52
2022-07-30T13:51:05.115Z,1.37
2022-07-30T13:54:07.826Z,1.45
2022-07-30T13:57:10.715Z,1.35
2022-07-30T14:00:13.791Z,1.60
2022-07-30T14:03:16.846Z,1.70
2022-07-30T14:06:19.936Z,1.52
2022-07-30T14:09:22.816Z,1.15
2022-07-30T14:12:25.381Z,1.10
2022-07-30T14:15:31.274Z,1.33
2022-07-30T14:18:34.081Z,1.08
2022-07-30T14:21:37.065Z,1.10
2022-07-30T14:24:39.659Z,1.17
2022-07-30T14:27:42.753Z,1.20
2022-07-30T14:30:47.496Z,1.10
2022-07-30T14:33:50.293Z,1.55
2022-07-30T14:36:52.797Z,1.17
2022-07-30T14:39:55.785Z,1.60
2022-07-30T14:42:58.337Z,2.00
2022-07-30T14:46:01.288Z,1.80
2022-07-30T14:49:03.940Z,1.60
2022-07-30T14:52:06.919Z,1.58
2022-07-30T14:55:09.913Z,1.67
2022-07-30T14:58:13.069Z,1.90
2022-07-30T15:01:17.000Z,3.33
2022-07-30T15:04:20.258Z,1.92
2022-07-30T15:07:22.931Z,1.80
2022-07-30T15:10:26.016Z,2.10
2022-07-30T15:13:28.686Z,2.17
2022-07-30T15:16:33.417Z,2.00
2022-07-30T15:19:35.893Z,2.10
2022-07-30T15:22:38.892Z,1.85
2022-07-30T15:25:42.321Z,1.85
2022-07-30T15:28:45.490Z,1.60
2022-07-30T15:31:48.107Z,1.73
2022-07-30T15:34:51.195Z,2.42
2022-07-30T15:37:53.753Z,1.55
2022-07-30T15:40:56.642Z,1.30
2022-07-30T15:43:59.397Z,1.40
2022-07-30T15:47:02.234Z,1.60
2022-07-30T15:50:05.668Z,1.55
2022-07-30T15:53:15.938Z,1.17
2022-07-30T15:56:20.753Z,1.35
2022-07-30T15:59:24.056Z,1.50
2022-07-30T16:02:26.672Z,1.67
2022-07-30T16:05:29.442Z,1.50
2022-07-30T16:08:52.240Z,1.55
2022-07-30T16:11:55.278Z,1.70
2022-07-30T16:14:58.297Z,1.58
2022-07-30T16:18:01.650Z,1.30
2022-07-30T16:21:04.195Z,1.65
2022-07-30T16:24:07.311Z,3.22
2022-07-30T16:27:09.941Z,1.45
2022-07-30T16:30:13.194Z,2.53
2022-07-30T16:33:16.384Z,1.50
2022-07-30T16:36:19.177Z,1.65
2022-07-30T16:39:21.876Z,1.50
2022-07-30T16:42:25.137Z,1.80
2022-07-30T16:45:28.455Z,1.65
2022-07-30T16:48:32.827Z,1.45
2022-07-30T16:51:35.378Z,2.00
2022-07-30T16:54:38.425Z,3.60
2022-07-30T16:57:41.059Z,1.45
2022-07-30T17:00:44.167Z,2.37
2022-07-30T17:03:46.714Z,1.62
2022-07-30T17:06:51.557Z,1.70
2022-07-30T17:09:54.250Z,2.03
2022-07-30T17:12:57.462Z,1.80
2022-07-30T17:16:01.434Z,1.75
2022-07-30T17:19:09.281Z,1.75
2022-07-30T17:22:12.337Z,1.75
2022-07-30T17:25:15.219Z,2.10
2022-07-30T17:28:19.557Z,2.03
2022-07-30T17:31:27.429Z,2.03
2022-07-30T17:34:30.071Z,2.30
2022-07-30T17:37:32.956Z,2.00
2022-07-30T17:40:35.794Z,2.20
2022-07-30T17:43:38.584Z,2.10
2022-07-30T17:46:41.356Z,2.35
2022-07-30T17:49:44.363Z,2.37
2022-07-30T17:52:46.986Z,2.12
2022-07-30T17:55:57.439Z,2.60
2022-07-30T17:59:00.879Z,2.42
2022-07-30T18:02:04.896Z,2.90
2022-07-30T18:05:10.510Z,2.30
2022-07-30T18:08:13.232Z,2.62
2022-07-30T18:11:17.144Z,3.10
2022-07-30T18:14:19.746Z,2.70
2022-07-30T18:17:22.654Z,2.40
2022-07-30T18:20:25.357Z,2.62
2022-07-30T18:23:34.781Z,2.80
2022-07-30T18:26:40.025Z,3.28
2022-07-30T18:29:43.016Z,2.75
2022-07-30T18:32:45.601Z,2.83
2022-07-30T18:35:48.599Z,2.85
2022-07-30T18:38:51.369Z,3.03
2022-07-30T18:41:54.308Z,2.85
2022-07-30T18:44:56.845Z,2.90
2022-07-30T18:47:59.624Z,2.80
2022-07-30T18:51:03.697Z,2.75
2022-07-30T18:54:06.822Z,2.90
2022-07-30T18:57:14.001Z,3.20
2022-07-30T19:00:34.366Z,3.40
2022-07-30T19:03:38.235Z,3.00
2022-07-30T19:06:41.387Z,2.80
2022-07-30T19:09:45.169Z,3.15
2022-07-30T19:12:48.008Z,4.97
2022-07-30T19:15:51.021Z,3.00
2022-07-30T19:18:54.117Z,3.08
2022-07-30T19:21:57.912Z,2.97
2022-07-30T19:25:00.720Z,3.62
2022-07-30T19:28:05.031Z,3.08
2022-07-30T19:31:08.300Z,3.50
2022-07-30T19:34:11.160Z,3.50
2022-07-30T19:37:13.963Z,3.60
2022-07-30T19:40:16.573Z,3.40
2022-07-30T19:43:24.275Z,3.30
2022-07-30T19:46:27.605Z,3.78
2022-07-30T19:49:32.800Z,3.72
2022-07-30T19:52:37.755Z,3.75
2022-07-30T19:55:41.261Z,4.15
2022-07-30T19:58:44.811Z,4.37
2022-07-30T20:01:51.957Z,4.30
2022-07-30T20:04:55.068Z,4.25
2022-07-30T20:07:58.385Z,4.05
2022-07-30T20:11:02.226Z,4.62
2022-07-30T20:14:05.936Z,3.85
2022-07-30T20:17:08.738Z,4.05
2022-07-30T20:20:12.610Z,4.47
2022-07-30T20:23:15.381Z,4.57
2022-07-30T20:26:19.037Z,4.25
2022-07-30T20:29:22.133Z,4.20
2022-07-30T20:32:25.735Z,4.90
2022-07-30T20:35:29.192Z,4.35
2022-07-30T20:38:33.845Z,4.80
2022-07-30T20:41:39.844Z,5.37
2022-07-30T20:44:50.612Z,4.75
2022-07-30T20:47:56.420Z,5.03
2022-07-30T20:50:59.221Z,4.57
2022-07-30T20:54:02.504Z,5.15
2022-07-30T20:57:15.780Z,4.75
2022-07-30T21:00:20.217Z,4.85
2022-07-30T21:03:23.926Z,4.70
2022-07-30T21:06:27.337Z,4.97
2022-07-30T21:09:51.896Z,4.60
2022-07-30T21:12:58.553Z,5.68
2022-07-30T21:16:16.809Z,5.30
2022-07-30T21:19:19.962Z,5.60
2022-07-30T21:22:26.312Z,5.05
2022-07-30T21:25:32.938Z,6.07
2022-07-30T21:28:51.664Z,5.53
2022-07-30T21:32:01.387Z,5.28
2022-07-30T21:35:08.604Z,5.00
2022-07-30T21:38:14.651Z,5.30
2022-07-30T21:41:19.894Z,5.72
2022-07-30T21:44:42.660Z,5.75
2022-07-30T21:47:47.545Z,5.20
2022-07-30T21:50:50.928Z,5.22
2022-07-30T21:53:53.553Z,5.28
2022-07-30T21:56:58.317Z,5.95
2022-07-30T22:00:01.057Z,5.57
2022-07-30T22:03:19.311Z,5.32
2022-07-30T22:06:41.193Z,5.60
2022-07-30T22:09:43.884Z,5.35
2022-07-30T22:12:46.649Z,5.28
2022-07-30T22:15:50.685Z,5.87
2022-07-30T22:18:53.514Z,5.82
2022-07-30T22:21:56.116Z,5.45
2022-07-30T22:25:00.345Z,5.55
2022-07-30T22:28:03.070Z,5.40
2022-07-30T22:31:11.176Z,6.05
2022-07-30T22:34:16.928Z,6.47
2022-07-30T22:37:21.575Z,6.10
2022-07-30T22:40:24.833Z,6.28
2022-07-30T22:43:33.087Z,6.25
2022-07-30T22:46:38.056Z,5.22
2022-07-30T22:49:50.352Z,6.55
2022-07-30T22:53:01.683Z,6.25
2022-07-30T23:00:00.306Z,6.18
2022-07-30T23:03:04.071Z,6.50
2022-07-30T23:09:36.792Z,6.25
2022-07-30T23:12:30.937Z,5.82
2022-07-30T23:12:33.917Z,5.85
2022-07-30T23:12:54.808Z,6.03
2022-07-30T23:15:57.733Z,6.22
2022-07-30T23:19:00.478Z,5.68
2022-07-30T23:22:03.355Z,6.07
2022-07-30T23:25:07.649Z,5.68
2022-07-30T23:28:11.222Z,5.90
2022-07-30T23:31:14.102Z,6.20
2022-07-30T23:34:16.932Z,5.53
2022-07-30T23:37:19.606Z,5.97
2022-07-30T23:40:23.404Z,5.65
2022-07-30T23:43:25.947Z,6.12
2022-07-30T23:46:28.775Z,5.97
2022-07-30T23:49:31.414Z,5.65
2022-07-30T23:52:34.388Z,6.07
2022-07-30T23:55:38.082Z,5.72
2022-07-30T23:58:45.994Z,5.87
